Time;durP1;ratioP1;P1;durP2;ratioP2;P2;SDS_P1;SDS_P2;PMS_P1;PMS_P2;Temp;Humidity;BMP_temperature;BMP_pressure;BME280_temperature;BME280_humidity;BME280_pressure;Samples;Min_cycle;Max_cycle;Signal;HPM_P1;HPM_P2
2022/04/18 00:00:22;;;;;;;12.63;8.18;;;8.80;67.80;;;;;;5096693;28;20040;-74
2022/04/18 00:02:47;;;;;;;11.75;8.10;;;8.80;68.40;;;;;;5106710;28;20040;-74
2022/04/18 00:05:13;;;;;;;13.60;8.43;;;8.80;69.60;;;;;;5077869;28;20036;-74
2022/04/18 00:07:39;;;;;;;13.02;8.57;;;8.70;70.00;;;;;;5099963;28;20300;-74
2022/04/18 00:10:05;;;;;;;12.63;8.90;;;8.70;71.10;;;;;;5073481;28;20051;-73
2022/04/18 00:12:31;;;;;;;16.00;9.07;;;8.70;72.20;;;;;;5089582;28;20403;-73
2022/04/18 00:14:57;;;;;;;13.73;8.35;;;8.80;72.80;;;;;;5089003;28;20044;-73
2022/04/18 00:17:23;;;;;;;12.20;8.30;;;8.70;73.40;;;;;;5094996;28;20184;-73
2022/04/18 00:19:50;;;;;;;12.63;8.65;;;8.60;74.10;;;;;;5076251;28;20201;-73
2022/04/18 00:22:16;;;;;;;;;;;8.60;75.60;;;;;;5096638;28;20039;-74
2022/04/18 00:24:41;;;;;;;12.65;8.65;;;8.60;75.30;;;;;;5097075;28;19926;-74
2022/04/18 00:27:07;;;;;;;12.57;8.23;;;8.60;76.60;;;;;;5104139;28;20451;-74
2022/04/18 00:29:33;;;;;;;11.57;7.35;;;8.50;77.60;;;;;;5107273;28;20047;-73
2022/04/18 00:31:59;;;;;;;12.40;8.57;;;8.50;78.40;;;;;;5105267;28;20039;-74
2022/04/18 00:34:25;;;;;;;13.45;8.82;;;8.40;78.40;;;;;;5104373;28;20059;-74
2022/04/18 00:36:51;;;;;;;13.57;8.48;;;8.40;79.10;;;;;;5100356;28;20122;-73
2022/04/18 00:39:16;;;;;;;12.05;8.60;;;8.40;80.60;;;;;;5076990;28;20605;-72
2022/04/18 00:41:42;;;;;;;14.15;9.10;;;8.30;80.10;;;;;;5080741;28;20044;-72
2022/04/18 00:44:08;;;;;;;12.15;8.15;;;8.40;82.40;;;;;;5100109;28;20066;-72
2022/04/18 00:46:34;;;;;;;13.38;7.57;;;8.30;82.20;;;;;;5086269;28;20105;-72
2022/04/18 00:48:59;;;;;;;11.57;8.18;;;8.30;82.60;;;;;;5090879;28;20047;-73
2022/04/18 00:51:27;;;;;;;11.52;8.07;;;8.30;84.00;;;;;;5090336;28;20040;-72
2022/04/18 00:53:54;;;;;;;14.98;8.40;;;8.20;83.90;;;;;;5088309;28;20055;-71
2022/04/18 00:56:21;;;;;;;13.85;9.10;;;8.20;85.20;;;;;;5088761;28;20043;-73
2022/04/18 00:58:48;;;;;;;15.18;9.05;;;8.30;85.70;;;;;;5100988;28;20116;-73
2022/04/18 01:01:14;;;;;;;11.73;8.05;;;8.30;86.00;;;;;;5102107;28;20073;-73
2022/04/18 01:03:42;;;;;;;12.68;8.68;;;8.20;85.30;;;;;;5079040;28;20082;-72
2022/04/18 01:06:07;;;;;;;14.32;9.32;;;8.20;86.60;;;;;;5087121;28;20051;-73
2022/04/18 01:08:34;;;;;;;14.70;9.43;;;8.20;87.60;;;;;;5101559;28;20040;-73
2022/04/18 01:11:01;;;;;;;14.57;9.73;;;8.20;87.50;;;;;;5104678;28;20770;-73
2022/04/18 01:13:28;;;;;;;12.50;8.60;;;8.20;88.00;;;;;;5092431;28;20046;-73
2022/04/18 01:15:55;;;;;;;13.80;9.60;;;8.10;88.80;;;;;;5109570;28;20143;-73
2022/04/18 01:18:21;;;;;;;13.90;9.27;;;8.10;89.60;;;;;;5095017;28;20027;-73
2022/04/18 01:20:47;;;;;;;;;;;8.10;90.10;;;;;;5112412;28;20043;-73
2022/04/18 01:23:13;;;;;;;12.65;8.95;;;8.10;89.90;;;;;;5078282;28;19916;-73
2022/04/18 01:31:07;;;;;;;12.68;9.18;;;7.90;90.80;;;;;;5101483;28;20039;-72
2022/04/18 01:33:33;;;;;;;12.02;8.65;;;8.00;91.30;;;;;;5095763;28;20114;-71
2022/04/18 01:35:59;;;;;;;11.00;7.70;;;7.90;91.50;;;;;;5098916;28;20804;-72
2022/04/18 01:38:25;;;;;;;13.25;9.38;;;7.90;91.60;;;;;;5090772;28;20486;-72
2022/04/18 01:40:51;;;;;;;14.20;8.88;;;7.90;91.50;;;;;;5093668;28;20040;-72
2022/04/18 01:43:17;;;;;;;12.15;8.40;;;7.80;91.60;;;;;;5109684;28;20126;-72
2022/04/18 01:45:45;;;;;;;14.52;9.52;;;7.80;92.20;;;;;;5101914;28;20115;-72
2022/04/18 01:48:11;;;;;;;16.10;9.50;;;7.80;92.70;;;;;;5095121;28;20073;-72
2022/04/18 01:50:37;;;;;;;14.63;9.57;;;7.80;92.60;;;;;;5102448;28;20062;-72
2022/04/18 01:53:04;;;;;;;14.63;9.40;;;7.80;93.10;;;;;;5095144;28;20114;-72
2022/04/18 01:55:29;;;;;;;;;;;7.80;93.70;;;;;;5090283;28;20031;-72
2022/04/18 01:57:55;;;;;;;15.07;9.38;;;7.80;93.60;;;;;;5109402;28;19926;-72
2022/04/18 02:00:21;;;;;;;12.80;8.83;;;7.80;93.40;;;;;;5092860;28;20035;-73
2022/04/18 02:02:46;;;;;;;16.38;9.27;;;7.80;93.20;;;;;;5070137;28;20302;-72
2022/04/18 02:05:12;;;;;;;13.67;8.93;;;7.80;93.00;;;;;;5093806;28;20051;-72
2022/04/18 02:07:38;;;;;;;11.77;8.40;;;7.80;93.20;;;;;;5106693;28;20305;-72
2022/04/18 02:10:04;;;;;;;15.35;9.68;;;7.80;93.40;;;;;;5088669;28;20395;-72
2022/04/18 02:12:30;;;;;;;;;;;7.80;93.00;;;;;;5106189;28;20410;-72
2022/04/18 02:14:56;;;;;;;14.60;9.18;;;7.80;93.10;;;;;;5110036;28;19938;-72
2022/04/18 02:17:21;;;;;;;13.77;9.13;;;7.90;93.10;;;;;;5092619;28;20043;-72
2022/04/18 02:19:48;;;;;;;12.23;9.27;;;7.80;92.90;;;;;;5107556;28;20076;-73
2022/04/18 02:22:14;;;;;;;14.75;8.82;;;7.80;93.20;;;;;;5092244;28;20108;-72
2022/04/18 02:24:40;;;;;;;12.52;8.77;;;7.80;93.20;;;;;;5089992;28;20122;-72
2022/04/18 02:27:09;;;;;;;11.10;7.75;;;7.80;93.40;;;;;;5082516;28;20052;-72
2022/04/18 02:29:35;;;;;;;13.43;9.30;;;7.70;93.60;;;;;;5062442;28;20075;-73
2022/04/18 02:34:44;;;;;;;12.73;8.63;;;7.80;93.50;;;;;;5109983;28;20063;-71
2022/04/18 02:37:11;;;;;;;13.52;9.90;;;7.70;93.70;;;;;;5104796;28;20506;-72
2022/04/18 02:39:37;;;;;;;11.20;8.23;;;7.70;93.80;;;;;;5098774;28;20377;-72
2022/04/18 02:42:03;;;;;;;11.82;7.38;;;7.70;94.50;;;;;;5076818;28;20077;-72
2022/04/18 02:44:29;;;;;;;11.55;7.70;;;7.60;94.10;;;;;;5081886;28;20119;-72
2022/04/18 02:46:55;;;;;;;10.20;7.25;;;7.50;94.20;;;;;;5094119;28;20465;-71
2022/04/18 02:49:21;;;;;;;11.57;7.70;;;7.40;94.30;;;;;;5090235;28;20051;-72
2022/04/18 02:51:47;;;;;;;11.02;7.00;;;7.40;95.00;;;;;;5090929;28;20040;-72
2022/04/18 02:54:12;;;;;;;11.43;7.68;;;7.30;94.50;;;;;;5099201;28;20047;-77
2022/04/18 02:56:38;;;;;;;13.48;8.20;;;7.30;95.10;;;;;;5099881;28;20115;-76
2022/04/18 02:59:04;;;;;;;11.95;8.30;;;7.30;95.10;;;;;;5092025;28;20032;-77
2022/04/18 03:01:29;;;;;;;12.82;8.50;;;7.30;94.70;;;;;;5074265;28;20196;-77
2022/04/18 03:03:55;;;;;;;11.60;8.35;;;7.30;95.10;;;;;;5089438;28;20054;-77
2022/04/18 03:06:21;;;;;;;11.50;8.23;;;7.30;94.90;;;;;;5095659;28;20043;-72
2022/04/18 03:08:47;;;;;;;12.80;8.95;;;7.30;95.00;;;;;;5109166;28;20043;-73
2022/04/18 03:11:12;;;;;;;13.00;8.65;;;7.30;95.20;;;;;;5078249;28;20375;-72
2022/04/18 03:13:44;;;;;;;14.52;8.30;;;7.30;95.90;;;;;;5093776;28;20052;-73
2022/04/18 03:16:11;;;;;;;12.30;7.60;;;7.20;95.30;;;;;;5093245;28;20748;-72
2022/04/18 03:18:37;;;;;;;11.93;8.32;;;7.10;96.20;;;;;;5089486;28;20051;-73
2022/04/18 03:21:03;;;;;;;16.05;8.50;;;7.10;96.20;;;;;;5072532;28;20032;-73
2022/04/18 03:23:29;;;;;;;12.55;8.52;;;7.00;96.20;;;;;;5090270;28;20047;-73
2022/04/18 03:25:56;;;;;;;12.20;8.38;;;7.00;96.10;;;;;;5082135;28;20046;-73
2022/04/18 03:28:21;;;;;;;14.20;9.05;;;6.90;96.60;;;;;;5097233;28;20372;-73
2022/04/18 03:30:47;;;;;;;14.37;9.40;;;6.90;97.40;;;;;;5105342;28;20058;-73
2022/04/18 03:33:13;;;;;;;13.10;8.77;;;6.90;97.10;;;;;;5057143;28;20479;-74
2022/04/18 03:39:50;;;;;;;14.88;9.70;;;6.90;97.80;;;;;;5089645;28;20063;-73
2022/04/18 03:41:09;;;;;;;15.68;10.07;;;6.80;98.40;;;;;;5090090;28;20215;-73
2022/04/18 03:43:35;;;;;;;16.03;10.43;;;6.80;98.30;;;;;;5100486;28;20114;-73
2022/04/18 03:46:01;;;;;;;15.77;9.50;;;6.90;98.70;;;;;;5093334;28;20046;-73
2022/04/18 03:48:26;;;;;;;14.45;9.35;;;6.80;98.50;;;;;;5102555;28;20036;-73
2022/04/18 03:50:52;;;;;;;15.27;9.52;;;6.80;98.70;;;;;;5053065;28;20032;-73
2022/04/18 03:53:17;;;;;;;14.17;9.57;;;6.80;98.70;;;;;;5081207;28;20118;-73
2022/04/18 03:55:43;;;;;;;12.23;8.47;;;6.70;98.60;;;;;;5089065;28;20385;-73
2022/04/18 03:58:09;;;;;;;11.63;8.02;;;6.70;99.30;;;;;;5072020;28;20301;-73
2022/04/18 04:00:35;;;;;;;13.85;9.32;;;6.60;98.70;;;;;;5069249;28;20113;-73
2022/04/18 04:03:01;;;;;;;14.40;9.10;;;6.60;99.20;;;;;;5088870;28;20428;-73
2022/04/18 04:05:27;;;;;;;15.00;9.97;;;6.70;99.40;;;;;;5104418;28;20097;-73
2022/04/18 04:07:52;;;;;;;13.85;8.93;;;6.70;99.30;;;;;;5088835;28;20039;-73
2022/04/18 04:10:18;;;;;;;10.48;7.75;;;6.60;99.40;;;;;;5076114;28;20040;-73
2022/04/18 04:12:44;;;;;;;12.48;8.55;;;6.60;99.00;;;;;;5079510;28;20502;-73
2022/04/18 04:15:09;;;;;;;14.52;8.98;;;6.60;99.10;;;;;;5091439;28;20087;-73
2022/04/18 04:17:36;;;;;;;13.45;8.25;;;6.60;99.50;;;;;;5087571;28;20127;-72
2022/04/18 04:20:02;;;;;;;11.20;7.65;;;6.50;99.50;;;;;;5070898;28;20063;-72
2022/04/18 04:22:28;;;;;;;11.45;7.88;;;6.50;99.40;;;;;;5086767;28;20182;-72
2022/04/18 04:24:53;;;;;;;13.60;8.90;;;6.40;99.40;;;;;;5082685;28;20040;-72
2022/04/18 04:27:19;;;;;;;11.02;7.15;;;6.40;99.90;;;;;;5088895;28;20368;-76
2022/04/18 04:29:45;;;;;;;11.80;7.25;;;6.40;99.90;;;;;;5089402;28;20139;-76
2022/04/18 04:32:10;;;;;;;11.53;7.70;;;6.30;99.90;;;;;;5089364;28;20052;-77
2022/04/18 04:34:36;;;;;;;12.17;8.07;;;6.30;99.90;;;;;;5089264;28;20305;-76
2022/04/18 04:37:02;;;;;;;11.70;7.50;;;6.30;99.90;;;;;;5089543;28;20379;-76
2022/04/18 04:39:27;;;;;;;11.65;8.30;;;6.30;99.90;;;;;;5090653;28;20118;-77
2022/04/18 04:41:53;;;;;;;12.45;8.45;;;6.30;99.90;;;;;;5072418;28;20108;-76
2022/04/18 04:44:19;;;;;;;10.97;7.90;;;6.20;99.90;;;;;;5089377;28;20118;-76
2022/04/18 04:46:45;;;;;;;10.77;7.33;;;6.20;99.90;;;;;;5089209;28;20360;-76
2022/04/18 04:49:12;;;;;;;;;;;6.10;99.90;;;;;;5089588;28;20290;-75
2022/04/18 04:51:39;;;;;;;14.50;8.50;;;6.20;99.90;;;;;;5092263;28;19920;-76
2022/04/18 04:54:05;;;;;;;11.38;7.63;;;6.20;99.90;;;;;;5093651;28;20741;-76
2022/04/18 04:56:30;;;;;;;10.43;7.35;;;6.20;99.90;;;;;;5093285;28;20032;-76
2022/04/18 04:58:56;;;;;;;9.48;6.25;;;6.10;99.90;;;;;;5076612;28;20070;-77
2022/04/18 05:01:22;;;;;;;10.82;7.90;;;6.10;99.90;;;;;;5093245;28;20082;-76
2022/04/18 05:03:48;;;;;;;11.73;7.80;;;6.20;99.90;;;;;;5093404;28;20101;-76
2022/04/18 05:06:14;;;;;;;11.40;8.05;;;6.20;99.90;;;;;;5092638;28;20077;-77
2022/04/18 05:08:41;;;;;;;13.07;8.35;;;6.30;99.90;;;;;;5092480;28;20040;-77
2022/04/18 05:11:07;;;;;;;11.30;7.65;;;6.30;99.90;;;;;;5098748;28;20409;-77
2022/04/18 05:13:33;;;;;;;11.55;8.35;;;6.40;99.90;;;;;;5102752;28;20081;-77
2022/04/18 05:15:59;;;;;;;11.77;7.50;;;6.40;99.90;;;;;;5086852;28;20071;-77
2022/04/18 05:18:24;;;;;;;9.60;6.90;;;6.40;99.90;;;;;;5087109;28;20309;-76
2022/04/18 05:20:50;;;;;;;11.48;7.88;;;6.50;99.90;;;;;;5107982;28;20043;-77
2022/04/18 05:23:17;;;;;;;10.38;7.55;;;6.50;99.90;;;;;;5102999;28;20136;-76
2022/04/18 05:25:44;;;;;;;11.57;7.32;;;6.60;99.90;;;;;;5096175;28;20105;-76
2022/04/18 05:28:10;;;;;;;14.55;8.55;;;6.70;99.90;;;;;;5088937;28;20048;-76
2022/04/18 05:30:37;;;;;;;10.23;7.45;;;6.70;99.90;;;;;;5084919;28;20040;-76
2022/04/18 05:33:03;;;;;;;11.95;7.68;;;6.80;99.90;;;;;;5082079;28;20414;-76
2022/04/18 05:35:29;;;;;;;;;;;6.80;99.60;;;;;;5081066;28;20074;-75
2022/04/18 05:37:55;;;;;;;14.43;8.18;;;6.90;99.90;;;;;;5080715;28;19916;-77
2022/04/18 05:40:20;;;;;;;12.02;7.53;;;7.00;99.50;;;;;;5080757;28;20040;-75
2022/04/18 05:42:46;;;;;;;9.85;7.53;;;7.10;99.30;;;;;;5085428;28;20051;-77
2022/04/18 05:45:12;;;;;;;11.07;7.32;;;7.30;99.20;;;;;;5056582;28;20041;-76
2022/04/18 05:47:38;;;;;;;10.05;7.55;;;7.50;98.90;;;;;;5081847;28;20043;-76
2022/04/18 05:50:04;;;;;;;10.30;6.70;;;7.70;98.30;;;;;;5073767;28;20044;-77
2022/04/18 05:52:30;;;;;;;12.20;7.75;;;7.70;97.70;;;;;;5080488;28;20434;-76
2022/04/18 05:54:55;;;;;;;10.15;6.60;;;7.70;97.60;;;;;;5084893;28;20048;-76
2022/04/18 05:57:21;;;;;;;10.40;7.20;;;7.70;97.70;;;;;;5053592;28;20504;-77
2022/04/18 05:59:48;;;;;;;12.02;8.25;;;7.70;97.20;;;;;;5080670;28;20434;-77
2022/04/18 06:02:14;;;;;;;11.02;7.80;;;7.90;96.80;;;;;;5081718;28;20051;-77
2022/04/18 06:04:40;;;;;;;;;;;7.90;96.80;;;;;;5062030;28;20055;-78
2022/04/18 06:07:06;;;;;;;12.52;7.30;;;8.20;97.00;;;;;;5073417;28;19920;-76
2022/04/18 06:09:31;;;;;;;9.80;6.88;;;8.70;95.80;;;;;;5066594;28;20032;-77
2022/04/18 06:11:57;;;;;;;10.85;7.60;;;9.30;94.10;;;;;;5076529;28;20036;-77
2022/04/18 06:14:22;;;;;;;10.75;7.68;;;9.70;92.30;;;;;;5080413;28;20418;-76
2022/04/18 06:16:48;;;;;;;9.65;7.00;;;10.00;92.00;;;;;;5061389;28;20376;-76
2022/04/18 06:19:14;;;;;;;12.57;7.65;;;10.20;91.10;;;;;;5080557;28;20411;-76
2022/04/18 06:21:40;;;;;;;10.85;6.97;;;10.40;90.80;;;;;;5088791;28;20038;-78
2022/04/18 06:24:06;;;;;;;10.38;7.88;;;10.50;90.70;;;;;;5090838;28;20400;-77
2022/04/18 06:26:31;;;;;;;11.18;7.63;;;10.60;89.90;;;;;;5077782;28;20479;-78
2022/04/18 06:28:57;;;;;;;11.50;7.88;;;10.70;90.00;;;;;;5091039;28;20059;-75
2022/04/18 06:31:24;;;;;;;10.65;7.45;;;10.90;89.50;;;;;;5087535;28;20044;-75
2022/04/18 06:33:50;;;;;;;9.68;7.00;;;11.00;89.80;;;;;;5091373;28;20054;-73
2022/04/18 06:36:16;;;;;;;9.38;7.20;;;11.20;89.50;;;;;;5073888;28;20052;-73
2022/04/18 06:38:41;;;;;;;9.48;6.53;;;11.40;89.00;;;;;;5091856;28;20036;-76
2022/04/18 06:41:09;;;;;;;10.30;7.18;;;11.50;87.80;;;;;;5091176;28;20044;-75
2022/04/18 06:43:35;;;;;;;10.10;7.38;;;11.40;87.20;;;;;;5055292;28;20377;-76
2022/04/18 06:46:01;;;;;;;10.32;7.13;;;11.50;87.70;;;;;;5073800;28;20040;-76
2022/04/18 06:48:26;;;;;;;11.43;7.75;;;11.60;86.30;;;;;;5093440;28;20039;-75
2022/04/18 06:50:52;;;;;;;12.50;8.15;;;11.60;85.90;;;;;;5091973;28;20048;-76
2022/04/18 06:53:18;;;;;;;9.15;7.53;;;11.60;85.40;;;;;;5093434;28;20068;-76
2022/04/18 06:58:29;;;;;;;9.38;7.03;;;11.80;85.60;;;;;;5092287;28;20036;-75
2022/04/18 07:00:54;;;;;;;;;;;12.00;85.10;;;;;;5090138;28;20479;-75
2022/04/18 07:03:20;;;;;;;10.38;6.78;;;12.30;85.60;;;;;;5072275;28;19923;-77
2022/04/18 07:05:47;;;;;;;10.93;7.18;;;12.40;84.50;;;;;;5093108;28;20071;-76
2022/04/18 07:08:13;;;;;;;9.50;7.03;;;12.50;83.50;;;;;;5099254;28;20055;-76
2022/04/18 07:10:38;;;;;;;10.02;7.13;;;12.60;83.40;;;;;;5077493;28;20062;-75
2022/04/18 07:13:04;;;;;;;10.95;7.72;;;12.70;83.00;;;;;;5074563;28;20100;-74
2022/04/18 07:15:30;;;;;;;9.95;7.55;;;12.70;82.80;;;;;;5090450;28;20370;-75
2022/04/18 07:17:55;;;;;;;9.38;6.72;;;12.80;81.50;;;;;;5090807;28;20047;-75
2022/04/18 07:20:21;;;;;;;7.88;6.65;;;13.00;82.80;;;;;;5094426;28;20028;-75
2022/04/18 07:22:47;;;;;;;8.30;6.15;;;13.30;82.40;;;;;;5075457;28;20100;-75
2022/04/18 07:25:13;;;;;;;9.77;7.00;;;13.40;82.10;;;;;;5083723;28;20091;-77
2022/04/18 07:27:39;;;;;;;8.45;6.60;;;13.50;81.20;;;;;;5071916;28;20475;-76
2022/04/18 07:30:06;;;;;;;9.48;6.55;;;13.50;80.80;;;;;;5090990;28;20104;-74
2022/04/18 07:32:37;;;;;;;8.30;6.22;;;13.80;82.10;;;;;;5092101;28;20040;-75
2022/04/18 07:35:03;;;;;;;7.80;6.32;;;13.90;80.20;;;;;;5080835;28;20047;-76
2022/04/18 07:37:29;;;;;;;9.57;6.47;;;13.80;80.00;;;;;;5088374;28;20044;-73
2022/04/18 07:39:54;;;;;;;7.22;5.68;;;14.00;80.50;;;;;;5083685;28;20496;-76
2022/04/18 07:42:20;;;;;;;8.18;6.38;;;14.10;79.90;;;;;;5077559;28;20044;-75
2022/04/18 07:44:46;;;;;;;9.60;6.35;;;14.30;79.70;;;;;;5073011;28;20039;-75
2022/04/18 07:47:12;;;;;;;;;;;14.40;80.20;;;;;;5097331;28;20055;-74
2022/04/18 07:49:38;;;;;;;9.55;6.55;;;14.40;77.90;;;;;;5104325;28;19930;-75
2022/04/18 07:52:04;;;;;;;9.30;6.55;;;14.60;78.30;;;;;;5092372;28;20123;-75
2022/04/18 07:54:29;;;;;;;8.20;5.90;;;14.60;77.30;;;;;;5080827;28;20073;-75
2022/04/18 07:56:55;;;;;;;6.88;5.38;;;14.70;77.70;;;;;;5096050;28;20047;-76
2022/04/18 07:59:22;;;;;;;7.70;5.72;;;14.80;76.30;;;;;;5088885;28;20371;-75
2022/04/18 08:01:47;;;;;;;7.22;5.28;;;14.90;76.80;;;;;;5080509;28;20042;-75
2022/04/18 08:04:13;;;;;;;7.82;5.75;;;15.00;75.60;;;;;;5101605;28;20127;-75
2022/04/18 08:06:39;;;;;;;8.13;5.60;;;15.00;75.10;;;;;;5094598;28;20082;-75
2022/04/18 08:09:04;;;;;;;6.65;5.03;;;15.20;73.10;;;;;;5087517;28;20036;-76
2022/04/18 08:11:30;;;;;;;6.95;5.32;;;15.30;74.20;;;;;;5089341;28;20048;-75
2022/04/18 08:13:56;;;;;;;7.30;5.10;;;15.20;71.20;;;;;;5087861;28;20056;-76
2022/04/18 08:16:22;;;;;;;9.27;5.28;;;15.20;71.50;;;;;;5069844;28;20051;-75
2022/04/18 08:18:48;;;;;;;7.22;5.60;;;15.40;71.60;;;;;;5090715;28;20111;-75
2022/04/18 08:21:15;;;;;;;6.32;5.10;;;15.50;70.30;;;;;;5089849;28;20097;-75
2022/04/18 08:23:46;;;;;;;6.97;5.43;;;15.50;70.00;;;;;;5104679;28;20043;-75
2022/04/18 08:26:12;;;;;;;8.02;5.93;;;15.50;69.40;;;;;;5085176;28;20139;-76
2022/04/18 08:28:38;;;;;;;8.38;5.72;;;15.50;69.70;;;;;;5101303;28;20172;-75
2022/04/18 08:31:04;;;;;;;6.75;4.80;;;15.60;69.00;;;;;;5075066;28;20033;-75
2022/04/18 08:33:30;;;;;;;7.75;5.20;;;15.70;70.70;;;;;;5084362;28;20348;-75
2022/04/18 08:35:57;;;;;;;6.47;5.18;;;15.90;69.50;;;;;;5052998;28;20452;-78
2022/04/18 08:38:24;;;;;;;6.07;4.80;;;15.90;68.70;;;;;;5076670;28;20127;-74
2022/04/18 08:40:50;;;;;;;7.78;5.78;;;16.10;68.10;;;;;;5078043;28;20125;-75
2022/04/18 08:43:17;;;;;;;7.82;5.97;;;16.10;68.20;;;;;;5085377;28;20032;-75
2022/04/18 08:45:43;;;;;;;8.18;5.80;;;16.10;66.90;;;;;;5077425;28;20513;-75
2022/04/18 08:53:38;;;;;;;7.28;5.55;;;16.20;66.70;;;;;;5074876;28;20048;-77
2022/04/18 08:56:04;;;;;;;6.22;4.80;;;16.30;67.40;;;;;;5057961;28;20050;-76
2022/04/18 08:58:30;;;;;;;5.30;4.53;;;16.50;67.80;;;;;;5101434;28;20059;-76
2022/04/18 09:00:57;;;;;;;6.95;4.88;;;16.80;67.20;;;;;;5102919;28;20040;-77
2022/04/18 09:03:23;;;;;;;6.38;4.30;;;17.10;67.10;;;;;;5073055;28;20126;-76
2022/04/18 09:05:49;;;;;;;5.80;4.32;;;17.20;66.00;;;;;;5062615;28;20124;-76
2022/04/18 09:08:16;;;;;;;7.57;5.40;;;17.50;65.30;;;;;;5086837;28;20052;-79
2022/04/18 09:10:42;;;;;;;;;;;17.50;63.90;;;;;;5088996;28;20105;-75
2022/04/18 09:13:10;;;;;;;5.93;4.05;;;17.50;64.20;;;;;;5088099;28;19916;-76
2022/04/18 09:15:41;;;;;;;7.45;5.20;;;17.80;65.10;;;;;;5088287;28;20048;-76
2022/04/18 09:18:10;;;;;;;6.97;4.88;;;17.80;64.00;;;;;;5072431;28;20039;-75
2022/04/18 09:21:01;;;;;;;6.88;4.90;;;17.80;63.90;;;;;;5089169;28;20040;-76
2022/04/18 09:23:32;;;;;;;5.60;3.97;;;17.90;62.50;;;;;;5089316;28;20036;-76
2022/04/18 09:26:01;;;;;;;6.40;4.50;;;18.10;62.60;;;;;;5088836;28;20047;-76
2022/04/18 09:28:32;;;;;;;5.55;4.28;;;18.20;61.60;;;;;;5089244;28;20123;-76
2022/04/18 09:31:00;;;;;;;6.55;4.10;;;18.40;60.70;;;;;;5088985;28;20043;-76
2022/04/18 09:33:38;;;;;;;4.93;3.88;;;18.50;60.20;;;;;;5090607;28;20074;-75
2022/04/18 09:36:09;;;;;;;5.28;4.15;;;18.80;60.50;;;;;;5071763;28;20093;-75
2022/04/18 09:38:52;;;;;;;5.60;3.97;;;18.70;59.60;;;;;;5091660;28;20104;-75
2022/04/18 09:41:33;;;;;;;5.65;4.38;;;18.80;59.90;;;;;;5075852;28;20376;-76
2022/04/18 09:43:59;;;;;;;6.38;4.55;;;18.90;60.00;;;;;;5092760;28;20036;-76
2022/04/18 09:46:26;;;;;;;5.47;4.22;;;19.00;58.50;;;;;;5076167;28;20040;-75
2022/04/18 09:48:59;;;;;;;5.32;4.25;;;19.00;59.60;;;;;;5092779;28;20044;-76
2022/04/18 09:51:27;;;;;;;5.35;4.47;;;19.10;59.00;;;;;;5077282;28;20530;-76
2022/04/18 09:53:54;;;;;;;5.10;3.83;;;19.10;57.20;;;;;;5075634;28;20063;-76
2022/04/18 09:56:22;;;;;;;6.72;4.38;;;19.20;57.60;;;;;;5092714;28;20048;-75
2022/04/18 09:58:48;;;;;;;5.63;4.05;;;19.10;56.10;;;;;;5092168;28;20500;-76
2022/04/18 10:01:16;;;;;;;5.22;3.90;;;19.20;58.40;;;;;;5072390;28;20117;-77
2022/04/18 10:03:43;;;;;;;5.25;3.97;;;19.30;57.50;;;;;;5072439;28;20052;-76
2022/04/18 10:06:10;;;;;;;5.20;3.70;;;19.40;55.80;;;;;;5089502;28;20084;-75
2022/04/18 10:08:37;;;;;;;4.50;3.90;;;19.60;57.00;;;;;;5079070;28;20051;-76
2022/04/18 10:11:08;;;;;;;4.95;3.80;;;19.60;56.00;;;;;;5075478;28;20109;-76
2022/04/18 10:13:35;;;;;;;5.70;4.00;;;19.70;55.70;;;;;;5091677;28;20085;-76
2022/04/18 10:16:01;;;;;;;5.75;4.07;;;19.80;55.00;;;;;;5055268;28;20051;-76
2022/04/18 10:18:28;;;;;;;5.50;3.55;;;19.80;55.40;;;;;;5074057;28;20041;-76
2022/04/18 10:20:56;;;;;;;5.13;3.45;;;20.00;55.30;;;;;;5093458;28;20040;-76
2022/04/18 10:23:46;;;;;;;4.30;3.55;;;20.10;54.40;;;;;;5091834;28;20044;-76
2022/04/18 10:26:34;;;;;;;5.65;3.30;;;20.30;53.60;;;;;;5092381;28;20097;-76
2022/04/18 10:29:09;;;;;;;4.72;3.40;;;20.30;55.00;;;;;;5092014;28;20048;-76
2022/04/18 10:31:39;;;;;;;4.90;3.60;;;20.50;53.60;;;;;;5093804;28;20050;-76
2022/04/18 10:34:06;;;;;;;4.97;3.15;;;20.40;53.70;;;;;;5091511;28;20051;-76
2022/04/18 10:36:33;;;;;;;4.38;3.22;;;20.50;54.00;;;;;;5058401;28;20411;-76
2022/04/18 10:39:07;;;;;;;4.40;3.00;;;20.60;52.60;;;;;;5091625;28;20036;-76
2022/04/18 10:41:32;;;;;;;3.60;2.60;;;20.70;52.90;;;;;;5074982;28;20051;-76
2022/04/18 10:44:06;;;;;;;;;;;20.90;51.80;;;;;;5091954;28;20032;-76
2022/04/18 10:46:32;;;;;;;3.53;2.38;;;21.00;52.80;;;;;;5074891;28;20339;-76
2022/04/18 10:49:23;;;;;;;4.40;3.00;;;21.30;51.10;;;;;;5091330;28;20074;-76
2022/04/18 10:51:52;;;;;;;3.38;2.33;;;21.20;49.60;;;;;;5091688;28;20044;-77
2022/04/18 10:54:28;;;;;;;3.58;2.67;;;21.40;50.30;;;;;;5091430;28;20064;-75
2022/04/18 10:56:58;;;;;;;3.53;2.60;;;21.40;50.60;;;;;;5093070;28;20103;-76
2022/04/18 10:59:26;;;;;;;3.13;2.30;;;21.20;48.80;;;;;;5091305;28;20051;-76
2022/04/18 11:01:54;;;;;;;3.55;2.70;;;21.10;47.70;;;;;;5091554;28;20043;-77
2022/04/18 11:04:24;;;;;;;4.70;2.70;;;21.10;48.20;;;;;;5073744;28;20089;-76
2022/04/18 11:06:51;;;;;;;3.78;2.65;;;21.00;48.00;;;;;;5091302;28;20047;-76
2022/04/18 11:09:22;;;;;;;3.38;2.80;;;21.00;47.80;;;;;;5092418;28;20452;-77
2022/04/18 11:12:23;;;;;;;4.88;3.75;;;21.20;49.10;;;;;;5091041;28;20494;-76
2022/04/18 11:15:01;;;;;;;3.55;2.80;;;21.20;49.70;;;;;;5090682;28;20093;-76
2022/04/18 11:17:40;;;;;;;3.03;2.40;;;21.30;47.70;;;;;;5091395;28;20047;-76
2022/04/18 11:20:32;;;;;;;4.65;2.40;;;21.20;47.30;;;;;;5090812;28;20044;-76
2022/04/18 11:23:26;;;;;;;2.88;1.88;;;21.30;47.70;;;;;;5092568;28;20040;-77
2022/04/18 11:26:01;;;;;;;2.72;2.17;;;21.40;46.10;;;;;;5090426;28;20100;-77
2022/04/18 11:28:41;;;;;;;2.85;2.22;;;21.70;46.40;;;;;;5090348;28;20440;-76
2022/04/18 11:31:09;;;;;;;3.28;2.75;;;21.80;45.10;;;;;;5093324;28;20542;-76
2022/04/18 11:33:42;;;;;;;2.83;2.28;;;22.00;45.50;;;;;;5095498;28;20051;-76
2022/04/18 11:36:09;;;;;;;2.50;1.90;;;22.30;45.70;;;;;;5083001;28;20052;-77
2022/04/18 11:38:35;;;;;;;2.95;2.30;;;22.60;46.20;;;;;;5074636;28;20035;-77
2022/04/18 11:41:12;;;;;;;3.13;2.28;;;22.60;44.10;;;;;;5096441;28;20036;-75
2022/04/18 11:43:38;;;;;;;3.00;2.03;;;22.40;44.80;;;;;;5087345;28;20488;-76
2022/04/18 11:46:08;;;;;;;2.70;2.28;;;22.70;44.50;;;;;;5084871;28;20052;-76
2022/04/18 11:48:35;;;;;;;4.00;2.97;;;22.70;45.70;;;;;;5055019;28;20040;-77
2022/04/18 11:51:01;;;;;;;3.85;2.78;;;22.60;46.20;;;;;;5087995;28;20483;-77
2022/04/18 11:53:34;;;;;;;2.85;2.55;;;22.60;45.80;;;;;;5078166;28;20092;-77
2022/04/18 11:56:07;;;;;;;3.72;2.95;;;22.60;45.70;;;;;;5087112;28;20036;-78
2022/04/18 11:58:39;;;;;;;3.83;2.53;;;22.60;46.00;;;;;;5083992;28;20043;-76
2022/04/18 12:06:46;;;;;;;3.60;2.58;;;22.40;44.10;;;;;;5082984;28;20056;-77
2022/04/18 12:09:13;;;;;;;2.60;2.00;;;22.30;43.40;;;;;;5088952;28;20496;-77
2022/04/18 12:11:39;;;;;;;2.97;2.28;;;22.50;45.10;;;;;;5070434;28;20036;-77
2022/04/18 12:14:05;;;;;;;2.40;1.90;;;22.50;43.40;;;;;;5091778;28;20035;-77
2022/04/18 12:16:36;;;;;;;2.88;2.30;;;22.60;43.50;;;;;;5072913;28;20120;-77
2022/04/18 12:19:02;;;;;;;3.88;2.28;;;22.60;43.20;;;;;;5068557;28;20445;-74
2022/04/18 12:21:28;;;;;;;2.88;2.30;;;22.60;42.30;;;;;;5090120;28;20047;-74
2022/04/18 12:23:55;;;;;;;2.92;2.08;;;22.60;42.80;;;;;;5067351;28;20067;-74
2022/04/18 12:26:28;;;;;;;3.40;1.92;;;22.70;43.10;;;;;;5072890;28;20135;-74
2022/04/18 12:29:02;;;;;;;2.65;2.22;;;22.90;43.00;;;;;;5089032;28;20119;-74
2022/04/18 12:31:28;;;;;;;3.55;2.63;;;22.80;43.20;;;;;;5070956;28;20036;-74
2022/04/18 12:33:54;;;;;;;3.03;2.40;;;22.40;43.40;;;;;;5087114;28;20083;-74
2022/04/18 12:36:32;;;;;;;4.20;2.63;;;22.60;44.40;;;;;;5088426;28;20091;-74
2022/04/18 12:38:58;;;;;;;4.28;2.90;;;22.70;43.10;;;;;;5072100;28;20130;-74
2022/04/18 12:41:31;;;;;;;3.30;2.70;;;22.40;42.60;;;;;;5089679;28;20040;-74
2022/04/18 12:43:57;;;;;;;4.30;3.20;;;22.20;43.60;;;;;;5089053;28;20047;-74
2022/04/18 12:46:26;;;;;;;3.13;2.67;;;22.10;43.50;;;;;;5088929;28;20044;-75
2022/04/18 12:48:52;;;;;;;4.43;2.80;;;22.20;43.80;;;;;;5089185;28;20500;-74
2022/04/18 12:51:33;;;;;;;4.25;2.53;;;22.00;43.60;;;;;;5090449;28;20119;-74
2022/04/18 12:53:59;;;;;;;3.60;2.58;;;22.20;44.30;;;;;;5085936;28;20472;-74
2022/04/18 12:56:26;;;;;;;;;;;22.10;44.00;;;;;;5089325;28;20051;-74
2022/04/18 12:58:56;;;;;;;4.45;3.00;;;22.40;44.00;;;;;;5088741;28;19931;-75
2022/04/18 13:01:28;;;;;;;3.42;2.58;;;22.50;43.60;;;;;;5087574;28;20052;-74
2022/04/18 13:03:55;;;;;;;2.60;2.20;;;22.70;43.80;;;;;;5091427;28;20050;-74
2022/04/18 13:06:22;;;;;;;2.60;2.03;;;22.90;43.10;;;;;;5072248;28;20040;-79
2022/04/18 13:08:48;;;;;;;3.30;2.30;;;23.10;43.10;;;;;;5071242;28;20475;-75
2022/04/18 13:11:14;;;;;;;3.33;2.42;;;23.00;42.80;;;;;;5087504;28;20055;-77
2022/04/18 13:13:42;;;;;;;3.30;2.53;;;22.90;42.20;;;;;;5085666;28;20043;-80
2022/04/18 13:16:22;;;;;;;3.05;2.58;;;23.00;42.10;;;;;;5074909;28;20052;-78